createdAt,value
2018-06-10T00:00:29.368Z,0
2018-06-10T00:01:29.452Z,0
2018-06-10T00:02:29.337Z,0
2018-06-10T00:03:29.456Z,0
2018-06-10T00:04:29.363Z,0
2018-06-10T00:05:29.400Z,0
2018-06-10T00:06:29.399Z,0
2018-06-10T00:07:29.431Z,0
2018-06-10T00:08:29.382Z,0
2018-06-10T00:09:29.341Z,0
2018-06-10T00:10:29.338Z,0
2018-06-10T00:11:29.355Z,0
2018-06-10T00:12:29.407Z,0
2018-06-10T00:13:29.371Z,0
2018-06-10T00:14:29.353Z,0
2018-06-10T00:15:29.409Z,0
2018-06-10T00:16:29.417Z,0
2018-06-10T00:17:29.414Z,0
2018-06-10T00:18:29.338Z,0
2018-06-10T00:19:29.340Z,0
2018-06-10T00:20:29.302Z,0
2018-06-10T00:21:29.367Z,0
2018-06-10T00:22:29.396Z,0
2018-06-10T00:23:29.400Z,0
2018-06-10T00:24:29.311Z,0
2018-06-10T00:25:29.392Z,0
2018-06-10T00:26:29.351Z,0
2018-06-10T00:27:29.390Z,0
2018-06-10T00:28:29.353Z,0
2018-06-10T00:29:29.405Z,0
2018-06-10T00:30:29.320Z,0
2018-06-10T00:31:29.334Z,0
2018-06-10T00:32:29.370Z,0
2018-06-10T00:33:29.369Z,0
2018-06-10T00:34:29.371Z,0
2018-06-10T00:35:29.270Z,0
2018-06-10T00:36:29.310Z,0
2018-06-10T00:37:29.370Z,0
2018-06-10T00:38:29.337Z,0
2018-06-10T00:39:29.370Z,0
2018-06-10T00:40:29.427Z,0
2018-06-10T00:41:29.426Z,0
2018-06-10T00:42:29.366Z,0
2018-06-10T00:43:29.356Z,0
2018-06-10T00:44:29.359Z,0
2018-06-10T00:45:29.355Z,0
2018-06-10T00:46:29.429Z,0
2018-06-10T00:47:29.357Z,0
2018-06-10T00:48:29.376Z,0
2018-06-10T00:49:29.318Z,0
2018-06-10T00:50:29.408Z,0
2018-06-10T00:51:29.320Z,0
2018-06-10T00:52:29.421Z,0
2018-06-10T00:53:29.421Z,0
2018-06-10T00:54:29.424Z,0
2018-06-10T00:55:29.303Z,0
2018-06-10T00:56:29.328Z,0
2018-06-10T00:57:29.414Z,0
2018-06-10T00:58:29.305Z,0
2018-06-10T00:59:29.370Z,0
2018-06-10T01:00:29.469Z,0
2018-06-10T01:01:29.412Z,0
2018-06-10T01:02:29.469Z,0
2018-06-10T01:03:29.402Z,0
2018-06-10T01:04:29.444Z,0
2018-06-10T01:05:29.374Z,0
2018-06-10T01:06:29.463Z,0
2018-06-10T01:07:29.491Z,0
2018-06-10T01:08:29.437Z,0
2018-06-10T01:09:29.478Z,0
2018-06-10T01:10:29.480Z,0
2018-06-10T01:11:29.471Z,0
2018-06-10T01:12:29.413Z,0
2018-06-10T01:13:29.419Z,0
2018-06-10T01:14:29.464Z,0
2018-06-10T01:15:29.379Z,0
2018-06-10T01:16:29.371Z,0
2018-06-10T01:17:29.478Z,0
2018-06-10T01:18:29.421Z,0
2018-06-10T01:19:29.443Z,0
2018-06-10T01:20:29.400Z,0
2018-06-10T01:21:29.308Z,0
2018-06-10T01:22:29.367Z,0
2018-06-10T01:23:29.368Z,0
2018-06-10T01:24:29.422Z,0
2018-06-10T01:25:29.447Z,0
2018-06-10T01:26:29.306Z,0
2018-06-10T01:27:29.348Z,0
2018-06-10T01:28:29.407Z,0
2018-06-10T01:29:29.406Z,0
2018-06-10T01:30:29.323Z,0
2018-06-10T01:31:29.355Z,0
2018-06-10T01:32:29.358Z,0
2018-06-10T01:33:29.330Z,0
2018-06-10T01:34:29.448Z,0
2018-06-10T01:35:29.436Z,0
2018-06-10T01:36:29.417Z,0
2018-06-10T01:37:29.450Z,0
2018-06-10T01:38:29.449Z,0
2018-06-10T01:39:29.418Z,0
2018-06-10T01:40:29.471Z,0
2018-06-10T01:41:29.479Z,0
2018-06-10T01:42:29.472Z,0
2018-06-10T01:43:29.456Z,0
2018-06-10T01:44:29.437Z,0
2018-06-10T01:45:29.469Z,0
2018-06-10T01:46:29.489Z,0
2018-06-10T01:47:29.398Z,0
2018-06-10T01:48:29.430Z,0
2018-06-10T01:49:29.400Z,0
2018-06-10T01:50:29.394Z,0
2018-06-10T01:51:29.460Z,0
2018-06-10T01:52:29.393Z,0
2018-06-10T01:53:29.398Z,0
2018-06-10T01:54:29.391Z,0
2018-06-10T01:55:29.399Z,0
2018-06-10T01:56:29.464Z,0
2018-06-10T01:57:29.402Z,0
2018-06-10T01:58:29.466Z,0
2018-06-10T01:59:29.398Z,0
2018-06-10T02:00:29.480Z,0
2018-06-10T02:01:29.404Z,0
2018-06-10T02:02:29.405Z,0
2018-06-10T02:03:29.404Z,0
2018-06-10T02:04:29.409Z,0
2018-06-10T02:05:29.440Z,0
2018-06-10T02:06:29.486Z,0
2018-06-10T02:07:29.408Z,0
2018-06-10T02:08:29.363Z,0
2018-06-10T02:09:29.489Z,0
2018-06-10T02:10:29.419Z,0
2018-06-10T02:11:29.501Z,0
2018-06-10T02:12:29.505Z,0
2018-06-10T02:13:29.548Z,0
2018-06-10T02:14:29.544Z,0
2018-06-10T02:15:29.481Z,0
2018-06-10T02:16:29.494Z,0
2018-06-10T02:17:29.527Z,0
2018-06-10T02:18:29.513Z,0
2018-06-10T02:19:29.514Z,0
2018-06-10T02:20:29.454Z,0
2018-06-10T02:21:29.457Z,0
2018-06-10T02:22:29.523Z,0
2018-06-10T02:23:29.414Z,0
2018-06-10T02:24:29.467Z,0
2018-06-10T02:25:29.455Z,4
2018-06-10T02:26:29.466Z,4
2018-06-10T02:27:29.494Z,4
2018-06-10T02:28:29.433Z,4
2018-06-10T02:29:29.489Z,4
2018-06-10T02:30:29.514Z,0
2018-06-10T02:31:29.555Z,0
2018-06-10T02:32:29.433Z,4
2018-06-10T02:33:29.469Z,4
2018-06-10T02:34:29.532Z,4
2018-06-10T02:35:29.478Z,4
2018-06-10T02:36:29.506Z,4
2018-06-10T02:37:29.534Z,8
2018-06-10T02:38:29.466Z,4
2018-06-10T02:39:29.479Z,4
2018-06-10T02:40:29.460Z,8
2018-06-10T02:41:29.480Z,8
2018-06-10T02:42:29.472Z,8
2018-06-10T02:43:29.502Z,8
2018-06-10T02:44:29.785Z,8
2018-06-10T02:45:29.528Z,12
2018-06-10T02:46:29.425Z,12
2018-06-10T02:47:29.512Z,12
2018-06-10T02:48:29.570Z,12
2018-06-10T02:49:29.447Z,16
2018-06-10T02:50:29.442Z,16
2018-06-10T02:51:29.523Z,20
2018-06-10T02:52:29.443Z,20
2018-06-10T02:53:29.442Z,24
2018-06-10T02:54:29.509Z,28
2018-06-10T02:55:29.443Z,28
2018-06-10T02:56:29.459Z,32
2018-06-10T02:57:29.444Z,36
2018-06-10T02:58:29.407Z,40
2018-06-10T02:59:29.491Z,44
2018-06-10T03:00:29.575Z,48
2018-06-10T03:01:29.515Z,52
2018-06-10T03:02:29.484Z,56
2018-06-10T03:03:29.542Z,60
2018-06-10T03:04:29.478Z,60
2018-06-10T03:05:29.455Z,68
2018-06-10T03:06:29.577Z,72
2018-06-10T03:07:29.551Z,84
2018-06-10T03:08:29.423Z,92
2018-06-10T03:09:29.603Z,104
2018-06-10T03:10:29.453Z,116
2018-06-10T03:11:29.517Z,128
2018-06-10T03:12:29.515Z,140
2018-06-10T03:13:29.519Z,164
2018-06-10T03:14:29.446Z,188
2018-06-10T03:15:29.518Z,224
2018-06-10T03:16:29.448Z,260
2018-06-10T03:17:29.519Z,300
2018-06-10T03:18:29.450Z,336
2018-06-10T03:19:29.527Z,368
2018-06-10T03:20:29.559Z,408
2018-06-10T03:21:29.558Z,444
2018-06-10T03:22:29.550Z,476
2018-06-10T03:23:29.490Z,524
2018-06-10T03:24:29.536Z,564
2018-06-10T03:25:29.452Z,612
2018-06-10T03:26:29.586Z,660
2018-06-10T03:27:29.470Z,700
2018-06-10T03:28:29.461Z,732
2018-06-10T03:29:29.503Z,752
2018-06-10T03:30:29.478Z,772
2018-06-10T03:31:29.532Z,780
2018-06-10T03:32:29.546Z,784
2018-06-10T03:33:29.497Z,776
2018-06-10T03:34:29.571Z,760
2018-06-10T03:35:29.537Z,740
2018-06-10T03:36:29.456Z,716
2018-06-10T03:37:29.441Z,684
2018-06-10T03:38:29.589Z,656
2018-06-10T03:39:29.523Z,620
2018-06-10T03:40:29.606Z,592
2018-06-10T03:41:29.544Z,560
2018-06-10T03:42:29.467Z,536
2018-06-10T03:43:29.482Z,516
2018-06-10T03:44:29.576Z,504
2018-06-10T03:45:29.469Z,492
2018-06-10T03:46:29.517Z,488
2018-06-10T03:47:29.569Z,488
2018-06-10T03:48:29.552Z,496
2018-06-10T03:49:29.574Z,508
2018-06-10T03:50:29.473Z,520
2018-06-10T03:51:29.544Z,544
2018-06-10T03:52:29.470Z,564
2018-06-10T03:53:29.542Z,592
2018-06-10T03:54:29.467Z,624
2018-06-10T03:55:29.542Z,652
2018-06-10T03:56:29.477Z,680
2018-06-10T03:57:29.472Z,704
2018-06-10T03:58:29.549Z,728
2018-06-10T03:59:29.546Z,752
2018-06-10T04:00:29.487Z,772
2018-06-10T04:01:29.565Z,800
2018-06-10T04:02:29.489Z,820
2018-06-10T04:03:29.488Z,848
2018-06-10T04:04:29.493Z,868
2018-06-10T04:05:29.490Z,896
2018-06-10T04:06:29.489Z,924
2018-06-10T04:07:29.563Z,956
2018-06-10T04:08:29.527Z,988
2018-06-10T04:09:29.568Z,1024
2018-06-10T04:10:29.553Z,1052
2018-06-10T04:11:29.509Z,1080
2018-06-10T04:12:29.567Z,1112
2018-06-10T04:13:29.598Z,1140
2018-06-10T04:14:29.493Z,1168
2018-06-10T04:15:29.460Z,1196
2018-06-10T04:16:29.568Z,1224
2018-06-10T04:17:29.498Z,1256
2018-06-10T04:18:29.588Z,1280
2018-06-10T04:19:29.458Z,1308
2018-06-10T04:20:29.572Z,1344
2018-06-10T04:21:29.496Z,1368
2018-06-10T04:22:29.626Z,1400
2018-06-10T04:23:29.570Z,1432
2018-06-10T04:24:29.587Z,1468
2018-06-10T04:25:29.544Z,1512
2018-06-10T04:26:29.567Z,1560
2018-06-10T04:27:29.544Z,1604
2018-06-10T04:28:29.548Z,1648
2018-06-10T04:29:29.595Z,1680
2018-06-10T04:30:29.594Z,1708
2018-06-10T04:31:29.499Z,1732
2018-06-10T04:32:29.499Z,1748
2018-06-10T04:33:29.480Z,1768
2018-06-10T04:34:29.497Z,1788
2018-06-10T04:35:29.576Z,1820
2018-06-10T04:36:29.496Z,1860
2018-06-10T04:37:29.607Z,1912
2018-06-10T04:38:29.573Z,1980
2018-06-10T04:39:29.548Z,2064
2018-06-10T04:40:29.580Z,2152
2018-06-10T04:41:29.502Z,2260
2018-06-10T04:42:29.511Z,2404
2018-06-10T04:43:29.607Z,2508
2018-06-10T04:44:29.488Z,2636
2018-06-10T04:45:29.520Z,2788
2018-06-10T04:46:29.553Z,2904
2018-06-10T04:47:29.484Z,3088
2018-06-10T04:48:29.585Z,3252
2018-06-10T04:49:29.491Z,3424
2018-06-10T04:50:29.628Z,3588
2018-06-10T04:51:29.507Z,3720
2018-06-10T04:52:29.580Z,3872
2018-06-10T04:53:29.533Z,3984
2018-06-10T04:54:29.492Z,4088
2018-06-10T04:55:29.512Z,4252
2018-06-10T04:56:29.547Z,4424
2018-06-10T04:57:29.588Z,4544
2018-06-10T04:58:29.507Z,4604
2018-06-10T04:59:29.518Z,4624
2018-06-10T05:00:29.499Z,4560
2018-06-10T05:01:29.588Z,4356
2018-06-10T05:02:29.516Z,4440
2018-06-10T05:03:29.497Z,4540
2018-06-10T05:04:29.575Z,4476
2018-06-10T05:05:29.612Z,4248
2018-06-10T05:06:29.564Z,4036
2018-06-10T05:07:29.564Z,3852
2018-06-10T05:08:29.553Z,3728
2018-06-10T05:09:29.629Z,3816
2018-06-10T05:10:29.556Z,3868
2018-06-10T05:11:29.500Z,3864
2018-06-10T05:12:29.569Z,3856
2018-06-10T05:13:29.584Z,3992
2018-06-10T05:14:29.528Z,4200
2018-06-10T05:15:29.598Z,4456
2018-06-10T05:16:29.577Z,4672
2018-06-10T05:17:29.573Z,4780
2018-06-10T05:18:29.644Z,4932
2018-06-10T05:19:29.578Z,5040
2018-06-10T05:20:29.593Z,4972
2018-06-10T05:21:29.607Z,4916
2018-06-10T05:22:29.581Z,5264
2018-06-10T05:23:29.645Z,5400
2018-06-10T05:24:29.636Z,5592
2018-06-10T05:25:29.514Z,5724
2018-06-10T05:26:29.592Z,5800
2018-06-10T05:27:29.584Z,5816
2018-06-10T05:28:29.581Z,5780
2018-06-10T05:29:29.555Z,5728
2018-06-10T05:30:29.580Z,5620
2018-06-10T05:31:29.638Z,5516
2018-06-10T05:32:29.656Z,5412
2018-06-10T05:33:29.586Z,5324
2018-06-10T05:34:29.644Z,5252
2018-06-10T05:35:29.538Z,5260
2018-06-10T05:36:29.647Z,5280
2018-06-10T05:37:29.625Z,5328
2018-06-10T05:38:29.660Z,5440
2018-06-10T05:39:29.636Z,5616
2018-06-10T05:40:29.626Z,5868
2018-06-10T05:41:29.551Z,6148
2018-06-10T05:42:29.555Z,6428
2018-06-10T05:43:29.515Z,6644
2018-06-10T05:44:29.555Z,6760
2018-06-10T05:45:29.626Z,6752
2018-06-10T05:46:29.626Z,6664
2018-06-10T05:47:29.561Z,6544
2018-06-10T05:48:29.629Z,6416
2018-06-10T05:49:29.625Z,6276
2018-06-10T05:50:29.557Z,6204
2018-06-10T05:51:29.670Z,6224
2018-06-10T05:52:29.583Z,6404
2018-06-10T05:53:29.624Z,6556
2018-06-10T05:54:29.598Z,6840
2018-06-10T05:55:29.596Z,7120
2018-06-10T05:56:29.631Z,7328
2018-06-10T05:57:29.630Z,7644
2018-06-10T05:58:29.670Z,7852
2018-06-10T05:59:29.643Z,8020
2018-06-10T06:00:29.597Z,8172
2018-06-10T06:01:29.612Z,8248
2018-06-10T06:02:29.558Z,8292
2018-06-10T06:03:29.594Z,8232
2018-06-10T06:04:29.633Z,8080
2018-06-10T06:05:29.679Z,7860
2018-06-10T06:06:29.576Z,7628
2018-06-10T06:07:29.693Z,7352
2018-06-10T06:08:29.558Z,7028
2018-06-10T06:09:29.607Z,6760
2018-06-10T06:10:29.675Z,6684
2018-06-10T06:11:29.679Z,6784
2018-06-10T06:12:29.611Z,7084
2018-06-10T06:13:29.618Z,7544
2018-06-10T06:14:29.608Z,8008
2018-06-10T06:15:29.642Z,8400
2018-06-10T06:16:29.607Z,8668
2018-06-10T06:17:29.603Z,8780
2018-06-10T06:18:29.673Z,8688
2018-06-10T06:19:29.608Z,8616
2018-06-10T06:20:29.675Z,8600
2018-06-10T06:21:29.561Z,8684
2018-06-10T06:22:29.613Z,8800
2018-06-10T06:23:29.567Z,8892
2018-06-10T06:24:29.625Z,8980
2018-06-10T06:25:29.554Z,9136
2018-06-10T06:26:29.679Z,9368
2018-06-10T06:27:29.577Z,9496
2018-06-10T06:28:29.629Z,9588
2018-06-10T06:29:29.589Z,9636
2018-06-10T06:30:29.658Z,9636
2018-06-10T06:31:29.571Z,9724
2018-06-10T06:32:29.572Z,9856
2018-06-10T06:33:29.623Z,10052
2018-06-10T06:34:29.630Z,10332
2018-06-10T06:35:29.685Z,10476
2018-06-10T06:36:29.592Z,10388
2018-06-10T06:37:29.623Z,10048
2018-06-10T06:38:29.687Z,9488
2018-06-10T06:39:29.641Z,8832
2018-06-10T06:40:29.663Z,8244
2018-06-10T06:41:29.662Z,7828
2018-06-10T06:42:29.658Z,7556
2018-06-10T06:43:29.662Z,7296
2018-06-10T06:44:29.595Z,7100
2018-06-10T06:45:29.661Z,6944
2018-06-10T06:46:29.628Z,6880
2018-06-10T06:47:29.597Z,6908
2018-06-10T06:48:29.681Z,7056
2018-06-10T06:49:29.665Z,7196
2018-06-10T06:50:29.595Z,7336
2018-06-10T06:51:29.665Z,7368
2018-06-10T06:52:29.750Z,7328
2018-06-10T06:53:29.573Z,7244
2018-06-10T06:54:29.681Z,7144
2018-06-10T06:55:29.573Z,7036
2018-06-10T06:56:29.645Z,6928
2018-06-10T06:57:29.637Z,6844
2018-06-10T06:58:29.612Z,6732
2018-06-10T06:59:29.593Z,6520
2018-06-10T07:00:29.642Z,6312
2018-06-10T07:01:29.679Z,6068
2018-06-10T07:02:29.560Z,5600
2018-06-10T07:03:29.666Z,5176
2018-06-10T07:04:29.681Z,4956
2018-06-10T07:05:29.607Z,4952
2018-06-10T07:06:29.677Z,5340
2018-06-10T07:07:29.611Z,5468
2018-06-10T07:08:29.610Z,5788
2018-06-10T07:09:29.614Z,6048
2018-06-10T07:10:29.684Z,6308
2018-06-10T07:11:29.584Z,6752
2018-06-10T07:12:29.554Z,7144
2018-06-10T07:13:29.597Z,7352
2018-06-10T07:14:29.672Z,7464
2018-06-10T07:15:29.629Z,7424
2018-06-10T07:16:29.606Z,7272
2018-06-10T07:17:29.670Z,6996
2018-06-10T07:18:29.670Z,6868
2018-06-10T07:19:29.675Z,6624
2018-06-10T07:20:29.627Z,6560
2018-06-10T07:21:29.609Z,6572
2018-06-10T07:22:29.591Z,6496
2018-06-10T07:23:29.695Z,6456
2018-06-10T07:24:29.588Z,6512
2018-06-10T07:25:29.665Z,6384
2018-06-10T07:26:29.658Z,6344
2018-06-10T07:27:29.668Z,6284
2018-06-10T07:28:29.710Z,6256
2018-06-10T07:29:29.712Z,6228
2018-06-10T07:30:29.701Z,6424
2018-06-10T07:31:29.692Z,6564
2018-06-10T07:32:29.625Z,6676
2018-06-10T07:33:29.628Z,7076
2018-06-10T07:34:29.694Z,6936
2018-06-10T07:35:29.635Z,7044
2018-06-10T07:36:29.697Z,7032
2018-06-10T07:37:29.630Z,7248
2018-06-10T07:38:29.633Z,7296
2018-06-10T07:39:29.631Z,7292
2018-06-10T07:40:29.669Z,7228
2018-06-10T07:41:29.727Z,7220
2018-06-10T07:42:29.741Z,7212
2018-06-10T07:43:29.705Z,7128
2018-06-10T07:44:29.718Z,6912
2018-06-10T07:45:29.624Z,6568
2018-06-10T07:46:29.638Z,6500
2018-06-10T07:47:29.722Z,6772
2018-06-10T07:48:29.688Z,6960
2018-06-10T07:49:29.611Z,7056
2018-06-10T07:50:29.675Z,7184
2018-06-10T07:51:29.576Z,6948
2018-06-10T07:52:29.603Z,6736
2018-06-10T07:53:29.607Z,6516
2018-06-10T07:54:29.561Z,6284
2018-06-10T07:55:29.701Z,6092
2018-06-10T07:56:29.687Z,6012
2018-06-10T07:57:29.601Z,6500
2018-06-10T07:58:29.669Z,6140
2018-06-10T07:59:29.581Z,6124
2018-06-10T08:00:29.608Z,6128
2018-06-10T08:01:29.715Z,6232
2018-06-10T08:02:29.740Z,6248
2018-06-10T08:03:29.635Z,6256
2018-06-10T08:04:29.756Z,6260
2018-06-10T08:05:29.835Z,6472
2018-06-10T08:06:29.638Z,6680
2018-06-10T08:07:29.743Z,6968
2018-06-10T08:08:29.685Z,6864
2018-06-10T08:09:29.642Z,7124
2018-06-10T08:10:29.642Z,7524
2018-06-10T08:11:29.699Z,7704
2018-06-10T08:12:29.719Z,7844
2018-06-10T08:13:29.758Z,7952
2018-06-10T08:14:29.719Z,8028
2018-06-10T08:15:29.644Z,8084
2018-06-10T08:16:29.721Z,8200
2018-06-10T08:17:29.727Z,8196
2018-06-10T08:18:29.690Z,8224
2018-06-10T08:19:29.642Z,8416
2018-06-10T08:20:29.689Z,8476
2018-06-10T08:21:29.724Z,8364
2018-06-10T08:22:29.723Z,8804
2018-06-10T08:23:29.692Z,9032
2018-06-10T08:24:29.746Z,9024
2018-06-10T08:25:29.748Z,9224
2018-06-10T08:26:29.762Z,9296
2018-06-10T08:27:29.647Z,9340
2018-06-10T08:28:29.690Z,9336
2018-06-10T08:29:29.805Z,9276
2018-06-10T08:30:29.704Z,9196
2018-06-10T08:31:29.747Z,9072
2018-06-10T08:32:29.736Z,8980
2018-06-10T08:33:29.693Z,9096
2018-06-10T08:34:29.674Z,9444
2018-06-10T08:35:29.741Z,9788
2018-06-10T08:36:29.667Z,10144
2018-06-10T08:37:29.728Z,10512
2018-06-10T08:38:29.740Z,10948
2018-06-10T08:39:29.675Z,11436
2018-06-10T08:40:29.740Z,12012
2018-06-10T08:41:29.758Z,12460
2018-06-10T08:42:29.678Z,13328
2018-06-10T08:43:29.666Z,14032
2018-06-10T08:44:29.648Z,14768
2018-06-10T08:45:29.710Z,15564
2018-06-10T08:46:29.749Z,16340
2018-06-10T08:47:29.723Z,17084
2018-06-10T08:48:29.649Z,17744
2018-06-10T08:49:29.745Z,18408
2018-06-10T08:50:29.702Z,19084
2018-06-10T08:51:29.665Z,19732
2018-06-10T08:52:29.767Z,20644
2018-06-10T08:53:29.648Z,20808
2018-06-10T08:54:29.749Z,21244
2018-06-10T08:55:29.770Z,21888
2018-06-10T08:56:29.747Z,22176
2018-06-10T08:57:29.749Z,22592
2018-06-10T08:58:29.678Z,22656
2018-06-10T08:59:29.719Z,22784
2018-06-10T09:00:29.779Z,22464
2018-06-10T09:01:29.686Z,23008
2018-06-10T09:02:29.757Z,22688
2018-06-10T09:03:29.760Z,23104
2018-06-10T09:04:29.757Z,22912
2018-06-10T09:05:29.688Z,22496
2018-06-10T09:06:29.758Z,22560
2018-06-10T09:07:29.689Z,22400
2018-06-10T09:08:29.714Z,22272
2018-06-10T09:09:29.758Z,22272
2018-06-10T09:10:29.763Z,22432
2018-06-10T09:11:29.777Z,22784
2018-06-10T09:12:29.663Z,23232
2018-06-10T09:13:29.728Z,23616
2018-06-10T09:14:29.696Z,23968
2018-06-10T09:15:29.764Z,24384
2018-06-10T09:16:29.820Z,25184
2018-06-10T09:17:29.665Z,25888
2018-06-10T09:18:29.781Z,26464
2018-06-10T09:19:29.726Z,26496
2018-06-10T09:20:29.729Z,25984
2018-06-10T09:21:29.760Z,24928
2018-06-10T09:22:29.765Z,23680
2018-06-10T09:23:29.734Z,22400
2018-06-10T09:24:29.740Z,21824
2018-06-10T09:25:29.733Z,22048
2018-06-10T09:26:29.772Z,22912
2018-06-10T09:27:29.772Z,24128
2018-06-10T09:28:29.689Z,25536
2018-06-10T09:29:29.752Z,26816
2018-06-10T09:30:29.744Z,27872
2018-06-10T09:31:29.703Z,28576
2018-06-10T09:32:29.811Z,28992
2018-06-10T09:33:29.777Z,29504
2018-06-10T09:34:29.710Z,30112
2018-06-10T09:35:29.814Z,30752
2018-06-10T09:36:29.713Z,31136
2018-06-10T09:37:29.775Z,31712
2018-06-10T09:38:29.779Z,32128
2018-06-10T09:39:29.778Z,32192
2018-06-10T09:40:29.715Z,32128
2018-06-10T09:41:29.777Z,31968
2018-06-10T09:42:29.788Z,31968
2018-06-10T09:43:29.816Z,32064
2018-06-10T09:44:29.814Z,32256
2018-06-10T09:45:29.737Z,32512
2018-06-10T09:46:29.687Z,32608
2018-06-10T09:47:29.738Z,32768
2018-06-10T09:48:29.763Z,32864
2018-06-10T09:49:29.710Z,32800
2018-06-10T09:50:29.706Z,32800
2018-06-10T09:51:29.747Z,32800
2018-06-10T09:52:29.825Z,32736
2018-06-10T09:53:29.708Z,32928
2018-06-10T09:54:29.748Z,33376
2018-06-10T09:55:29.840Z,34080
2018-06-10T09:56:29.812Z,34976
2018-06-10T09:57:29.823Z,35936
2018-06-10T09:58:29.756Z,36864
2018-06-10T09:59:29.791Z,37824
2018-06-10T10:00:29.805Z,39136
2018-06-10T10:01:29.790Z,40800
2018-06-10T10:02:29.791Z,42688
2018-06-10T10:03:29.725Z,44864
2018-06-10T10:04:29.724Z,47296
2018-06-10T10:05:29.729Z,49056
2018-06-10T10:06:29.764Z,50240
2018-06-10T10:07:29.731Z,50656
2018-06-10T10:08:29.793Z,50688
2018-06-10T10:09:29.728Z,50688
2018-06-10T10:10:29.800Z,50912
2018-06-10T10:11:29.849Z,51616
2018-06-10T10:12:29.757Z,53056
2018-06-10T10:13:29.757Z,55104
2018-06-10T10:14:29.836Z,57696
2018-06-10T10:15:29.801Z,61216
2018-06-10T10:16:29.758Z,65568
2018-06-10T10:17:29.804Z,71488
2018-06-10T10:18:29.826Z,78496
2018-06-10T10:19:29.803Z,84864
2018-06-10T10:20:29.786Z,96512
2018-06-10T10:21:29.847Z,99808
2018-06-10T10:22:29.806Z,86432
2018-06-10T10:23:29.742Z,85696
2018-06-10T10:24:29.784Z,87840
2018-06-10T10:25:29.809Z,95296
2018-06-10T10:26:29.707Z,104704
2018-06-10T10:27:29.708Z,104128
2018-06-10T10:28:29.714Z,100448
2018-06-10T10:29:29.730Z,110336
2018-06-10T10:30:29.792Z,106080
2018-06-10T10:31:29.798Z,100992
2018-06-10T10:32:29.676Z,103136
2018-06-10T10:33:29.733Z,113312
2018-06-10T10:34:29.735Z,172128
2018-06-10T10:35:29.747Z,111680
2018-06-10T10:36:29.709Z,130560
2018-06-10T10:37:29.681Z,94816
2018-06-10T10:38:29.705Z,152896
2018-06-10T10:39:29.791Z,202720
2018-06-10T10:40:29.765Z,173024
2018-06-10T10:41:29.799Z,172352
2018-06-10T10:42:29.871Z,156640
2018-06-10T10:43:29.785Z,108160
2018-06-10T10:44:29.745Z,85472
2018-06-10T10:45:29.771Z,91040
2018-06-10T10:46:29.813Z,101056
2018-06-10T10:47:29.686Z,106944
2018-06-10T10:48:29.804Z,96032
2018-06-10T10:49:29.816Z,102816
2018-06-10T10:50:29.754Z,179808
2018-06-10T10:51:29.726Z,200992
2018-06-10T10:52:29.862Z,139776
2018-06-10T10:53:29.780Z,136896
2018-06-10T10:54:29.724Z,93280
2018-06-10T10:55:29.830Z,88672
2018-06-10T10:56:29.723Z,90752
2018-06-10T10:57:29.815Z,89984
2018-06-10T10:58:29.836Z,72320
2018-06-10T10:59:29.804Z,73792
2018-06-10T11:00:29.786Z,108896
2018-06-10T11:01:29.750Z,198304
2018-06-10T11:02:29.759Z,163552
2018-06-10T11:03:29.717Z,109792
2018-06-10T11:04:29.824Z,128192
2018-06-10T11:05:29.788Z,176800
2018-06-10T11:06:29.826Z,192192
2018-06-10T11:07:29.720Z,194304
2018-06-10T11:08:29.739Z,185152
2018-06-10T11:09:29.829Z,191808
2018-06-10T11:10:29.830Z,197696
2018-06-10T11:11:29.742Z,205984
2018-06-10T11:12:29.818Z,199424
2018-06-10T11:13:29.837Z,122560
2018-06-10T11:14:29.778Z,194656
2018-06-10T11:15:29.774Z,194912
2018-06-10T11:16:29.795Z,115904
2018-06-10T11:17:29.872Z,164000
2018-06-10T11:18:29.803Z,105152
2018-06-10T11:19:29.817Z,167232
2018-06-10T11:20:29.819Z,180960
2018-06-10T11:21:29.864Z,197184
2018-06-10T11:22:29.845Z,193152
2018-06-10T11:23:29.753Z,197376
2018-06-10T11:24:29.877Z,170976
2018-06-10T11:25:29.861Z,176576
2018-06-10T11:26:29.883Z,196256
2018-06-10T11:27:29.752Z,196864
2018-06-10T11:28:29.847Z,90208
2018-06-10T11:29:29.816Z,74848
2018-06-10T11:30:29.816Z,92032
2018-06-10T11:31:29.884Z,96192
2018-06-10T11:32:29.835Z,108960
2018-06-10T11:33:29.781Z,93984
2018-06-10T11:34:29.808Z,93632
2018-06-10T11:35:29.837Z,139360
2018-06-10T11:36:29.754Z,86528
2018-06-10T11:37:29.787Z,75296
2018-06-10T11:38:29.803Z,74080
2018-06-10T11:39:29.742Z,74720
2018-06-10T11:40:29.809Z,75264
2018-06-10T11:41:29.853Z,76512
2018-06-10T11:42:30.039Z,86752
2018-06-10T11:43:29.853Z,84672
2018-06-10T11:44:29.794Z,91520
2018-06-10T11:45:29.870Z,107296
2018-06-10T11:46:29.796Z,132960
2018-06-10T11:47:29.798Z,188544
2018-06-10T11:48:29.868Z,153856
2018-06-10T11:49:29.838Z,168640
2018-06-10T11:50:29.794Z,115744
2018-06-10T11:51:29.865Z,123008
2018-06-10T11:52:29.799Z,145312
2018-06-10T11:53:29.822Z,151168
2018-06-10T11:54:29.817Z,213600
2018-06-10T11:55:29.736Z,135712
2018-06-10T11:56:29.802Z,120288
2018-06-10T11:57:29.817Z,104384
2018-06-10T11:58:29.744Z,122496
2018-06-10T11:59:29.859Z,100256
2018-06-10T12:00:29.865Z,106080
2018-06-10T12:01:29.862Z,144064
2018-06-10T12:02:29.958Z,118784
2018-06-10T12:03:29.837Z,87168
2018-06-10T12:04:29.899Z,84704
2018-06-10T12:05:29.902Z,77344
2018-06-10T12:06:29.793Z,63648
2018-06-10T12:07:29.776Z,65184
2018-06-10T12:08:29.833Z,74688
2018-06-10T12:09:29.876Z,76864
2018-06-10T12:10:29.897Z,80736
2018-06-10T12:11:29.780Z,82944
2018-06-10T12:12:29.834Z,85632
2018-06-10T12:13:29.818Z,80896
2018-06-10T12:14:29.879Z,77696
2018-06-10T12:15:29.841Z,69120
2018-06-10T12:16:29.782Z,70432
2018-06-10T12:17:29.806Z,92896
2018-06-10T12:18:29.907Z,175808
2018-06-10T12:19:29.844Z,129888
2018-06-10T12:20:29.802Z,94048
2018-06-10T12:21:29.907Z,91200
2018-06-10T12:22:29.859Z,112544
2018-06-10T12:23:29.869Z,148832
2018-06-10T12:24:29.839Z,136192
2018-06-10T12:25:29.811Z,171584
2018-06-10T12:26:29.792Z,131136
2018-06-10T12:27:29.809Z,87520
2018-06-10T12:28:29.792Z,170560
2018-06-10T12:29:29.818Z,177376
2018-06-10T12:30:29.752Z,105600
2018-06-10T12:31:29.794Z,95488
2018-06-10T12:32:29.872Z,67520
2018-06-10T12:33:29.908Z,69248
2018-06-10T12:34:29.892Z,115584
2018-06-10T12:35:29.848Z,119392
2018-06-10T12:36:29.893Z,162080
2018-06-10T12:37:29.923Z,162208
2018-06-10T12:38:29.872Z,169760
2018-06-10T12:39:29.849Z,83744
2018-06-10T12:40:29.896Z,92512
2018-06-10T12:41:29.865Z,63584
2018-06-10T12:42:29.876Z,59424
2018-06-10T12:43:29.870Z,66240
2018-06-10T12:44:29.885Z,73280
2018-06-10T12:45:29.916Z,76256
2018-06-10T12:46:29.933Z,162464
2018-06-10T12:47:29.823Z,88640
2018-06-10T12:48:29.917Z,88288
2018-06-10T12:49:29.859Z,174016
2018-06-10T12:50:29.811Z,169728
2018-06-10T12:51:29.858Z,163840
2018-06-10T12:52:29.924Z,154496
2018-06-10T12:53:29.945Z,67744
2018-06-10T12:54:29.877Z,62496
2018-06-10T12:55:29.935Z,64512
2018-06-10T12:56:29.884Z,70112
2018-06-10T12:57:29.987Z,73344
2018-06-10T12:58:29.942Z,76352
2018-06-10T12:59:29.876Z,68864
2018-06-10T13:00:29.911Z,65664
2018-06-10T13:01:29.929Z,62496
2018-06-10T13:02:29.846Z,62368
2018-06-10T13:03:29.846Z,154400
2018-06-10T13:04:29.841Z,163904
2018-06-10T13:05:29.785Z,169152
2018-06-10T13:06:29.902Z,163360
2018-06-10T13:07:29.817Z,162880
2018-06-10T13:08:29.877Z,169312
2018-06-10T13:09:29.902Z,169440
2018-06-10T13:10:29.862Z,165216
2018-06-10T13:11:29.819Z,92352
2018-06-10T13:12:29.845Z,60832
2018-06-10T13:13:29.837Z,57792
2018-06-10T13:14:29.918Z,61792
2018-06-10T13:15:29.849Z,43520
2018-06-10T13:16:29.916Z,41952
2018-06-10T13:17:29.850Z,43360
2018-06-10T13:18:29.884Z,45504
2018-06-10T13:19:29.873Z,46240
2018-06-10T13:20:29.873Z,47872
2018-06-10T13:21:29.874Z,48448
2018-06-10T13:22:29.942Z,52768
2018-06-10T13:23:29.915Z,146720
2018-06-10T13:24:29.864Z,155552
2018-06-10T13:25:29.856Z,103488